createdAt,value
2023-01-05T00:01:25.148Z,84.30
2023-01-05T00:05:27.954Z,84.20
2023-01-05T00:09:30.711Z,84.30
2023-01-05T00:13:52.073Z,84.40
2023-01-05T00:18:13.293Z,84.40
2023-01-05T00:22:30.692Z,84.50
2023-01-05T00:26:33.700Z,84.50
2023-01-05T00:30:43.433Z,84.50
2023-01-05T00:34:47.290Z,84.40
2023-01-05T00:38:50.356Z,84.50
2023-01-05T00:42:53.255Z,84.50
2023-01-05T00:46:56.052Z,84.60
2023-01-05T00:50:58.826Z,84.70
2023-01-05T00:55:01.572Z,84.60
2023-01-05T00:59:04.454Z,84.60
2023-01-05T01:03:07.348Z,84.60
2023-01-05T01:07:10.114Z,84.60
2023-01-05T01:11:13.220Z,84.60
2023-01-05T01:15:16.297Z,84.70
2023-01-05T01:19:22.584Z,84.70
2023-01-05T01:23:25.679Z,84.70
2023-01-05T01:27:31.005Z,84.60
2023-01-05T01:31:35.582Z,84.70
2023-01-05T01:35:38.718Z,84.70
2023-01-05T01:39:41.580Z,84.70
2023-01-05T01:43:53.474Z,84.70
2023-01-05T01:48:00.842Z,84.80
2023-01-05T01:52:03.893Z,84.90
2023-01-05T01:56:10.687Z,85.00
2023-01-05T02:00:15.014Z,85.00
2023-01-05T02:04:21.702Z,85.00
2023-01-05T02:08:42.359Z,85.10
2023-01-05T02:13:13.068Z,85.10
2023-01-05T02:17:38.021Z,85.10
2023-01-05T02:22:02.756Z,85.00
2023-01-05T02:26:21.025Z,85.00
2023-01-05T02:30:59.523Z,84.90
2023-01-05T02:35:23.221Z,84.90
2023-01-05T02:39:34.827Z,84.90
2023-01-05T02:43:43.269Z,84.90
2023-01-05T02:47:46.198Z,85.00
2023-01-05T02:51:55.700Z,85.10
2023-01-05T02:56:23.891Z,85.30
2023-01-05T03:00:32.479Z,85.30
2023-01-05T03:04:53.445Z,85.20
2023-01-05T03:09:03.221Z,85.10
2023-01-05T03:13:27.364Z,85.10
2023-01-05T03:17:34.669Z,85.00
2023-01-05T03:21:56.504Z,84.90
2023-01-05T03:26:19.716Z,85.00
2023-01-05T03:30:52.261Z,85.00
2023-01-05T03:35:30.628Z,85.00
2023-01-05T03:39:35.971Z,85.10
2023-01-05T03:43:42.997Z,85.10
2023-01-05T03:47:46.029Z,85.10
2023-01-05T03:51:49.156Z,85.20
2023-01-05T03:55:52.412Z,85.10
2023-01-05T03:59:55.702Z,85.20
2023-01-05T04:03:58.925Z,85.10
2023-01-05T04:08:01.999Z,85.20
2023-01-05T04:12:05.563Z,85.30
2023-01-05T04:16:14.700Z,85.40
2023-01-05T04:20:18.550Z,85.40
2023-01-05T04:24:21.385Z,85.40
2023-01-05T04:28:25.106Z,85.40
2023-01-05T04:32:31.732Z,85.50
2023-01-05T04:36:34.608Z,85.60
2023-01-05T04:40:37.896Z,85.70
2023-01-05T04:44:40.809Z,85.80
2023-01-05T04:48:43.736Z,85.90
2023-01-05T04:52:46.898Z,86.00
2023-01-05T04:56:49.931Z,86.00
2023-01-05T05:00:53.526Z,85.90
2023-01-05T05:04:57.652Z,85.90
2023-01-05T05:09:00.583Z,85.90
2023-01-05T05:13:05.496Z,85.90
2023-01-05T05:17:08.291Z,85.80
2023-01-05T05:21:11.678Z,85.90
2023-01-05T05:25:15.920Z,85.90
2023-01-05T05:29:22.382Z,86.00
2023-01-05T05:33:25.819Z,85.90
2023-01-05T05:37:28.580Z,85.90
2023-01-05T05:41:31.478Z,86.00
2023-01-05T05:45:34.391Z,86.00
2023-01-05T05:49:37.138Z,86.00
2023-01-05T05:53:39.932Z,85.90
2023-01-05T05:57:42.661Z,86.00
2023-01-05T06:01:45.460Z,86.00
2023-01-05T06:05:48.334Z,85.90
2023-01-05T06:09:51.078Z,86.00
2023-01-05T06:13:53.981Z,86.00
2023-01-05T06:17:56.921Z,86.00
2023-01-05T06:21:59.684Z,86.10
2023-01-05T06:26:02.489Z,86.10
2023-01-05T06:30:05.716Z,86.00
2023-01-05T06:34:08.442Z,86.00
2023-01-05T06:38:11.379Z,86.00
2023-01-05T06:42:14.962Z,86.00
2023-01-05T06:46:19.761Z,86.00
2023-01-05T06:50:22.524Z,86.00
2023-01-05T06:54:25.243Z,86.00
2023-01-05T06:58:28.043Z,86.00
2023-01-05T07:02:30.829Z,86.10
2023-01-05T07:06:36.250Z,86.10
2023-01-05T07:10:39.010Z,86.10
2023-01-05T07:14:41.876Z,86.10
2023-01-05T07:18:44.829Z,86.10
2023-01-05T07:22:47.510Z,86.00
2023-01-05T07:26:50.409Z,85.90
2023-01-05T07:30:53.451Z,86.00
2023-01-05T07:34:56.355Z,86.00
2023-01-05T07:38:59.745Z,86.00
2023-01-05T07:43:02.931Z,86.00
2023-01-05T07:47:05.817Z,86.00
2023-01-05T07:51:10.121Z,86.00
2023-01-05T07:55:14.874Z,85.90
2023-01-05T07:59:18.083Z,85.80
2023-01-05T08:03:21.474Z,85.80
2023-01-05T08:07:24.463Z,85.70
2023-01-05T08:11:27.377Z,85.70
2023-01-05T08:15:30.084Z,85.60
2023-01-05T08:19:33.408Z,85.60
2023-01-05T08:23:38.213Z,85.60
2023-01-05T08:27:41.191Z,85.60
2023-01-05T08:31:44.273Z,85.50
2023-01-05T08:35:47.377Z,85.40
2023-01-05T08:39:50.851Z,85.30
2023-01-05T08:43:56.049Z,85.30
2023-01-05T08:47:58.857Z,85.20
2023-01-05T08:52:01.821Z,85.50
2023-01-05T08:56:04.868Z,85.40
2023-01-05T09:00:08.373Z,85.30
2023-01-05T09:04:11.225Z,85.30
2023-01-05T09:08:13.921Z,85.20
2023-01-05T09:12:17.109Z,85.10
2023-01-05T09:20:48.621Z,85.00
2023-01-05T09:24:51.984Z,85.20
2023-01-05T09:28:55.266Z,85.20
2023-01-05T09:32:58.181Z,85.10
2023-01-05T09:37:00.937Z,84.90
2023-01-05T09:41:16.571Z,84.90
2023-01-05T09:45:26.396Z,84.80
2023-01-05T09:49:31.132Z,84.90
2023-01-05T09:53:33.889Z,84.80
2023-01-05T09:57:36.796Z,84.30
2023-01-05T10:01:41.130Z,84.10
2023-01-05T10:05:45.438Z,83.60
2023-01-05T10:09:48.734Z,83.30
2023-01-05T10:14:09.012Z,83.00
2023-01-05T10:18:19.357Z,82.60
2023-01-05T10:22:36.800Z,82.30
2023-01-05T10:27:23.587Z,81.80
2023-01-05T10:31:24.108Z,81.10
2023-01-05T10:36:01.568Z,80.60
2023-01-05T10:40:18.068Z,80.60
2023-01-05T10:44:51.822Z,80.40
2023-01-05T10:48:54.630Z,80.20
2023-01-05T10:52:58.320Z,80.10
2023-01-05T10:57:34.824Z,80.00
2023-01-05T11:01:43.301Z,79.30
2023-01-05T11:05:49.508Z,79.00
2023-01-05T11:09:52.533Z,78.50
2023-01-05T11:13:57.510Z,78.50
2023-01-05T11:18:01.072Z,78.60
2023-01-05T11:22:03.885Z,78.50
2023-01-05T11:26:21.194Z,78.10
2023-01-05T11:30:25.504Z,78.30
2023-01-05T11:34:45.634Z,78.50
2023-01-05T11:38:54.746Z,78.60
2023-01-05T11:42:58.772Z,78.60
2023-01-05T11:47:01.650Z,78.70
2023-01-05T11:51:04.789Z,78.80
2023-01-05T11:55:33.077Z,78.40
2023-01-05T11:59:38.534Z,78.10
2023-01-05T12:04:01.459Z,78.10
2023-01-05T12:08:20.769Z,77.20
2023-01-05T12:12:44.800Z,76.70
2023-01-05T12:16:52.354Z,76.80
2023-01-05T12:21:17.286Z,76.70
2023-01-05T12:25:38.778Z,76.30
2023-01-05T12:31:59.450Z,76.10
2023-01-05T12:34:16.598Z,75.90
2023-01-05T12:38:33.489Z,75.80
2023-01-05T12:42:53.825Z,75.70
2023-01-05T12:47:14.715Z,75.90
2023-01-05T12:51:37.866Z,75.90
2023-01-05T12:55:51.730Z,75.90
2023-01-05T13:00:06.157Z,76.00
2023-01-05T13:04:31.059Z,76.00
2023-01-05T13:08:49.165Z,75.90
2023-01-05T13:12:59.593Z,75.70
2023-01-05T13:17:12.962Z,75.80
2023-01-05T13:21:16.467Z,75.80
2023-01-05T13:25:25.345Z,75.70
2023-01-05T13:29:33.322Z,75.90
2023-01-05T13:34:03.932Z,75.60
2023-01-05T13:38:25.036Z,75.60
2023-01-05T13:42:46.142Z,75.50
2023-01-05T13:47:27.748Z,75.70
2023-01-05T13:51:54.419Z,75.60
2023-01-05T13:56:01.156Z,75.40
2023-01-05T14:00:12.123Z,75.40
2023-01-05T14:04:32.665Z,75.30
2023-01-05T14:08:38.894Z,74.90
2023-01-05T14:12:44.752Z,74.60
2023-01-05T14:16:48.744Z,74.60
2023-01-05T14:20:54.436Z,74.30
2023-01-05T14:24:59.356Z,74.00
2023-01-05T14:29:02.151Z,73.50
2023-01-05T14:33:06.288Z,73.70
2023-01-05T14:37:34.830Z,73.60
2023-01-05T14:41:38.517Z,73.20
2023-01-05T14:45:41.602Z,73.20
2023-01-05T14:49:55.996Z,73.20
2023-01-05T14:54:03.303Z,73.20
2023-01-05T14:58:13.690Z,73.60
2023-01-05T15:02:24.770Z,73.80
2023-01-05T15:06:51.836Z,73.80
2023-01-05T15:11:16.400Z,73.90
2023-01-05T15:15:44.511Z,74.00
2023-01-05T15:20:24.637Z,74.20
2023-01-05T15:24:59.865Z,74.20
2023-01-05T15:29:27.393Z,74.30
2023-01-05T15:33:52.413Z,74.30
2023-01-05T15:37:55.303Z,74.40
2023-01-05T15:42:02.043Z,74.60
2023-01-05T15:46:05.696Z,74.60
2023-01-05T15:50:19.591Z,74.70
2023-01-05T15:54:31.183Z,74.80
2023-01-05T15:58:43.450Z,75.00
2023-01-05T16:02:46.237Z,75.20
2023-01-05T16:06:57.208Z,75.30
2023-01-05T16:11:05.991Z,75.40
2023-01-05T16:15:15.388Z,75.50
2023-01-05T16:19:34.667Z,75.60
2023-01-05T16:23:44.590Z,75.80
2023-01-05T16:27:51.344Z,75.90
2023-01-05T16:31:55.571Z,76.00
2023-01-05T16:36:09.487Z,76.00
2023-01-05T16:40:21.701Z,76.00
2023-01-05T16:44:24.779Z,76.00
2023-01-05T16:48:50.913Z,76.00
2023-01-05T16:52:54.462Z,75.80
2023-01-05T16:57:01.594Z,75.90
2023-01-05T17:01:26.113Z,75.90
2023-01-05T17:05:32.632Z,75.80
2023-01-05T17:09:36.745Z,75.90
2023-01-05T17:13:49.560Z,75.90
2023-01-05T17:17:55.369Z,75.90
2023-01-05T17:22:04.494Z,75.90
2023-01-05T17:26:11.393Z,76.00
2023-01-05T17:30:20.422Z,76.10
2023-01-05T17:34:24.034Z,76.20
2023-01-05T17:38:26.850Z,76.20
2023-01-05T17:42:44.723Z,76.20
2023-01-05T17:46:48.100Z,76.20
2023-01-05T17:50:52.930Z,76.20
2023-01-05T17:54:59.553Z,76.20
2023-01-05T17:59:03.620Z,76.20
2023-01-05T18:03:06.361Z,76.20
2023-01-05T18:07:09.792Z,76.30
2023-01-05T18:11:13.164Z,76.30
2023-01-05T18:15:17.680Z,76.40
2023-01-05T18:19:20.613Z,76.40
2023-01-05T18:23:24.520Z,76.40
2023-01-05T18:27:27.310Z,76.40
2023-01-05T18:31:30.202Z,76.40
2023-01-05T18:35:34.080Z,76.30
2023-01-05T18:39:38.083Z,76.30
2023-01-05T18:43:41.143Z,76.30
2023-01-05T18:47:43.999Z,76.30
2023-01-05T18:51:49.571Z,76.30
2023-01-05T18:55:52.398Z,76.30
2023-01-05T18:59:55.283Z,76.20
2023-01-05T19:03:58.337Z,76.20
2023-01-05T19:08:01.427Z,76.00
2023-01-05T19:12:04.400Z,76.20
2023-01-05T19:16:09.136Z,76.60
2023-01-05T19:20:12.192Z,76.90
2023-01-05T19:24:25.106Z,77.00
2023-01-05T19:28:28.087Z,77.30
2023-01-05T19:32:33.059Z,77.50
2023-01-05T19:36:36.220Z,77.80
2023-01-05T19:40:39.003Z,78.10
2023-01-05T19:44:41.996Z,78.30
2023-01-05T19:48:45.556Z,78.20
2023-01-05T19:52:48.734Z,78.30
2023-01-05T19:56:52.051Z,78.30
2023-01-05T20:00:54.906Z,78.60
2023-01-05T20:04:58.080Z,78.80
2023-01-05T20:09:05.097Z,79.00
2023-01-05T20:13:08.529Z,79.00
2023-01-05T20:17:12.733Z,79.00
2023-01-05T20:21:15.521Z,79.10
2023-01-05T20:25:18.337Z,79.00
2023-01-05T20:29:22.949Z,79.30
2023-01-05T20:33:26.084Z,79.60
2023-01-05T20:37:31.397Z,79.60
2023-01-05T20:41:40.771Z,79.80
2023-01-05T20:45:43.840Z,79.80
2023-01-05T20:49:47.131Z,79.80
2023-01-05T20:53:51.569Z,80.10
2023-01-05T20:57:55.114Z,80.30
2023-01-05T21:01:59.132Z,80.20
2023-01-05T21:06:02.053Z,80.20
2023-01-05T21:10:05.037Z,80.20
2023-01-05T21:14:09.398Z,80.40
2023-01-05T21:18:12.310Z,80.30
2023-01-05T21:22:15.736Z,80.20
2023-01-05T21:26:19.260Z,80.30
2023-01-05T21:30:22.305Z,80.30
2023-01-05T21:34:25.964Z,80.30
2023-01-05T21:39:00.867Z,80.30
2023-01-05T21:42:51.975Z,80.30
2023-01-05T21:46:54.671Z,80.20
2023-01-05T21:51:17.544Z,80.30
2023-01-05T21:55:39.091Z,80.30
2023-01-05T21:59:42.639Z,80.30
2023-01-05T22:03:45.670Z,80.30
2023-01-05T22:07:48.532Z,80.30
2023-01-05T22:11:51.650Z,80.30
2023-01-05T22:15:54.981Z,80.40
2023-01-05T22:19:57.739Z,80.50
2023-01-05T22:24:00.543Z,80.70
2023-01-05T22:28:03.424Z,80.70
2023-01-05T22:32:06.659Z,80.60
2023-01-05T22:36:10.726Z,80.70
2023-01-05T22:40:14.243Z,80.80
2023-01-05T22:44:17.298Z,80.80
2023-01-05T22:48:20.546Z,80.70
2023-01-05T22:52:26.101Z,80.70
2023-01-05T22:56:31.821Z,80.70
2023-01-05T23:00:34.760Z,80.70
2023-01-05T23:04:38.141Z,80.70
2023-01-05T23:08:41.987Z,80.70
2023-01-05T23:12:44.812Z,80.70
2023-01-05T23:16:47.880Z,80.80
2023-01-05T23:20:59.728Z,80.90
2023-01-05T23:25:02.508Z,80.90
2023-01-05T23:29:05.536Z,80.70
2023-01-05T23:33:08.479Z,80.70
2023-01-05T23:37:11.304Z,80.70
2023-01-05T23:41:16.109Z,80.70
2023-01-05T23:45:19.232Z,80.90
2023-01-05T23:49:22.027Z,80.80
2023-01-05T23:53:26.249Z,80.80
2023-01-05T23:57:30.510Z,80.70
